createdAt,value
2018-07-02T00:00:33.796Z,15.02
2018-07-02T00:03:01.329Z,14.97
2018-07-02T00:07:39.352Z,14.93
2018-07-02T00:10:08.077Z,14.82
2018-07-02T00:12:35.808Z,14.77
2018-07-02T00:15:03.595Z,14.76
2018-07-02T00:17:31.219Z,14.77
2018-07-02T00:19:58.917Z,14.73
2018-07-02T00:22:26.478Z,14.67
2018-07-02T00:24:54.099Z,14.63
2018-07-02T00:27:21.814Z,14.59
2018-07-02T00:29:49.372Z,14.56
2018-07-02T00:32:17.129Z,14.54
2018-07-02T00:34:44.670Z,14.54
2018-07-02T00:37:12.300Z,14.54
2018-07-02T00:39:40.042Z,14.52
2018-07-02T00:42:07.596Z,14.47
2018-07-02T00:44:35.322Z,14.51
2018-07-02T00:47:02.886Z,14.48
2018-07-02T00:49:30.449Z,14.45
2018-07-02T00:51:58.959Z,14.41
2018-07-02T00:54:26.497Z,14.29
2018-07-02T00:56:54.076Z,14.25
2018-07-02T00:59:21.800Z,14.29
2018-07-02T01:01:49.423Z,14.25
2018-07-02T01:04:17.135Z,14.24
2018-07-02T01:06:44.682Z,14.24
2018-07-02T01:09:12.292Z,14.20
2018-07-02T01:11:40.016Z,14.16
2018-07-02T01:14:07.614Z,14.09
2018-07-02T01:16:35.342Z,14.02
2018-07-02T01:19:02.954Z,14.00
2018-07-02T01:21:30.547Z,13.97
2018-07-02T01:23:58.321Z,13.94
2018-07-02T01:26:25.885Z,13.89
2018-07-02T01:28:53.725Z,13.86
2018-07-02T01:31:21.622Z,13.88
2018-07-02T01:33:49.278Z,13.91
2018-07-02T01:36:16.962Z,13.83
2018-07-02T01:38:44.508Z,13.80
2018-07-02T01:41:12.085Z,13.77
2018-07-02T01:43:39.833Z,13.81
2018-07-02T01:46:07.398Z,13.78
2018-07-02T01:48:35.145Z,13.81
2018-07-02T01:51:02.731Z,13.81
2018-07-02T01:53:30.282Z,13.71
2018-07-02T01:55:58.050Z,13.68
2018-07-02T01:58:25.626Z,13.67
2018-07-02T02:00:53.417Z,13.64
2018-07-02T02:03:21.007Z,13.59
2018-07-02T02:05:48.694Z,13.56
2018-07-02T02:08:16.422Z,13.49
2018-07-02T02:10:44.017Z,13.47
2018-07-02T02:13:11.702Z,13.47
2018-07-02T02:15:39.264Z,13.44
2018-07-02T02:18:06.869Z,13.41
2018-07-02T02:20:34.543Z,13.38
2018-07-02T02:23:02.080Z,13.31
2018-07-02T02:25:29.810Z,13.29
2018-07-02T02:27:57.460Z,13.23
2018-07-02T02:30:25.101Z,13.13
2018-07-02T02:32:52.842Z,13.13
2018-07-02T02:35:20.369Z,13.16
2018-07-02T02:37:47.991Z,13.13
2018-07-02T02:40:15.667Z,13.11
2018-07-02T02:42:43.224Z,13.10
2018-07-02T02:45:10.891Z,13.08
2018-07-02T02:47:38.462Z,13.08
2018-07-02T02:50:06.086Z,12.97
2018-07-02T02:52:33.686Z,12.80
2018-07-02T02:55:01.245Z,12.71
2018-07-02T02:57:28.986Z,12.72
2018-07-02T02:59:56.513Z,12.70
2018-07-02T03:02:24.154Z,12.69
2018-07-02T03:04:51.824Z,12.66
2018-07-02T03:07:19.380Z,12.82
2018-07-02T03:09:47.176Z,12.88
2018-07-02T03:12:14.666Z,12.91
2018-07-02T03:14:42.215Z,12.89
2018-07-02T03:17:09.964Z,12.92
2018-07-02T03:19:37.519Z,12.95
2018-07-02T03:22:05.446Z,12.94
2018-07-02T03:24:33.022Z,12.92
2018-07-02T03:27:00.571Z,12.92
2018-07-02T03:29:28.316Z,12.93
2018-07-02T03:31:55.919Z,12.88
2018-07-02T03:34:23.660Z,12.90
2018-07-02T03:36:51.211Z,12.84
2018-07-02T03:39:18.798Z,12.86
2018-07-02T03:41:46.518Z,12.73
2018-07-02T03:44:14.025Z,12.55
2018-07-02T03:46:41.775Z,12.62
2018-07-02T03:49:09.400Z,12.60
2018-07-02T03:51:36.971Z,12.66
2018-07-02T03:54:04.855Z,12.72
2018-07-02T03:56:32.427Z,12.79
2018-07-02T03:59:00.005Z,12.89
2018-07-02T04:01:27.663Z,12.93
2018-07-02T04:03:55.240Z,12.90
2018-07-02T04:06:22.954Z,12.97
2018-07-02T04:08:50.497Z,12.99
2018-07-02T04:11:18.085Z,13.03
2018-07-02T04:13:45.778Z,13.08
2018-07-02T04:16:13.358Z,13.16
2018-07-02T04:18:41.061Z,13.19
2018-07-02T04:21:08.596Z,13.20
2018-07-02T04:23:36.225Z,13.19
2018-07-02T04:26:04.007Z,13.27
2018-07-02T04:28:31.550Z,13.32
2018-07-02T04:30:59.267Z,13.40
2018-07-02T04:33:26.827Z,13.45
2018-07-02T04:35:54.358Z,13.47
2018-07-02T04:38:22.157Z,13.46
2018-07-02T04:40:49.692Z,13.49
2018-07-02T04:43:17.395Z,13.53
2018-07-02T04:45:44.995Z,13.61
2018-07-02T04:48:12.558Z,13.66
2018-07-02T04:50:40.233Z,13.71
2018-07-02T04:53:07.848Z,13.81
2018-07-02T04:55:35.386Z,13.92
2018-07-02T04:58:03.065Z,14.05
2018-07-02T05:00:30.714Z,14.12
2018-07-02T05:02:58.402Z,14.19
2018-07-02T05:05:25.930Z,14.16
2018-07-02T05:07:53.738Z,14.23
2018-07-02T05:10:21.303Z,14.27
2018-07-02T05:12:48.833Z,14.34
2018-07-02T05:15:16.427Z,14.43
2018-07-02T05:17:43.954Z,14.55
2018-07-02T05:20:11.474Z,14.65
2018-07-02T05:22:39.043Z,14.73
2018-07-02T05:25:06.587Z,14.83
2018-07-02T05:27:34.154Z,14.70
2018-07-02T05:30:01.722Z,14.77
2018-07-02T05:32:29.254Z,14.96
2018-07-02T05:34:56.802Z,15.01
2018-07-02T05:37:24.353Z,15.12
2018-07-02T05:39:51.864Z,15.23
2018-07-02T05:42:19.392Z,15.39
2018-07-02T05:44:46.940Z,15.53
2018-07-02T05:47:14.467Z,15.67
2018-07-02T05:49:41.991Z,15.73
2018-07-02T05:52:09.551Z,15.77
2018-07-02T05:54:38.221Z,15.96
2018-07-02T05:57:05.887Z,16.10
2018-07-02T05:59:33.437Z,16.31
2018-07-02T06:02:01.196Z,16.39
2018-07-02T06:04:28.518Z,16.31
2018-07-02T06:06:56.151Z,16.45
2018-07-02T06:09:23.675Z,16.64
2018-07-02T06:11:51.222Z,16.73
2018-07-02T06:14:18.798Z,16.85
2018-07-02T06:16:46.314Z,16.93
2018-07-02T06:19:13.845Z,17.01
2018-07-02T06:21:41.394Z,17.14
2018-07-02T06:24:08.946Z,17.33
2018-07-02T06:26:36.484Z,17.66
2018-07-02T06:29:04.145Z,17.87
2018-07-02T06:31:31.691Z,17.99
2018-07-02T06:33:59.802Z,18.19
2018-07-02T06:36:27.374Z,18.36
2018-07-02T06:38:54.926Z,18.55
2018-07-02T06:41:22.579Z,18.69
2018-07-02T06:43:50.122Z,18.83
2018-07-02T06:46:17.663Z,18.98
2018-07-02T06:48:45.191Z,19.18
2018-07-02T06:51:12.746Z,19.35
2018-07-02T06:53:40.359Z,19.43
2018-07-02T06:56:07.894Z,19.55
2018-07-02T06:58:35.495Z,19.61
2018-07-02T07:01:03.115Z,19.67
2018-07-02T07:03:30.658Z,19.76
2018-07-02T07:05:58.222Z,19.95
2018-07-02T07:08:25.754Z,20.15
2018-07-02T07:10:53.268Z,20.24
2018-07-02T07:13:20.822Z,20.32
2018-07-02T07:15:48.354Z,20.39
2018-07-02T07:18:15.894Z,20.48
2018-07-02T07:20:43.456Z,20.77
2018-07-02T07:23:10.994Z,21.11
2018-07-02T07:25:38.545Z,21.37
2018-07-02T07:28:06.131Z,21.63
2018-07-02T07:30:33.680Z,21.83
2018-07-02T07:33:01.210Z,22.05
2018-07-02T07:35:28.763Z,22.26
2018-07-02T07:37:56.320Z,22.46
2018-07-02T07:40:23.875Z,22.66
2018-07-02T07:42:51.409Z,22.77
2018-07-02T07:45:18.959Z,22.91
2018-07-02T07:47:46.512Z,22.87
2018-07-02T07:50:14.081Z,23.01
2018-07-02T07:52:41.627Z,23.18
2018-07-02T07:55:09.668Z,23.22
2018-07-02T07:57:37.251Z,23.18
2018-07-02T08:00:05.331Z,23.17
2018-07-02T08:02:33.201Z,23.25
2018-07-02T08:05:00.743Z,23.21
2018-07-02T08:07:28.262Z,23.30
2018-07-02T08:09:55.783Z,23.46
2018-07-02T08:12:23.402Z,23.80
2018-07-02T08:14:50.915Z,24.06
2018-07-02T08:17:18.450Z,24.03
2018-07-02T08:19:45.985Z,24.03
2018-07-02T08:22:13.530Z,24.03
2018-07-02T08:24:41.133Z,24.31
2018-07-02T08:27:08.730Z,24.38
2018-07-02T08:29:36.246Z,24.68
2018-07-02T08:32:04.326Z,24.92
2018-07-02T08:34:31.923Z,24.77
2018-07-02T08:36:59.475Z,24.93
2018-07-02T08:39:27.036Z,25.19
2018-07-02T08:41:54.620Z,25.53
2018-07-02T08:44:22.257Z,25.73
2018-07-02T08:46:49.829Z,25.84
2018-07-02T08:49:17.350Z,26.00
2018-07-02T08:51:44.906Z,26.32
2018-07-02T08:54:12.542Z,26.44
2018-07-02T08:56:40.145Z,26.52
2018-07-02T08:59:07.658Z,26.94
2018-07-02T09:01:35.224Z,27.31
2018-07-02T09:04:02.813Z,27.80
2018-07-02T09:06:30.327Z,27.94
2018-07-02T09:08:57.919Z,28.22
2018-07-02T09:11:25.469Z,28.04
2018-07-02T09:13:53.039Z,28.21
2018-07-02T09:16:20.567Z,28.16
2018-07-02T09:18:48.129Z,28.53
2018-07-02T09:21:15.675Z,28.85
2018-07-02T09:23:44.133Z,28.82
2018-07-02T09:26:11.753Z,28.99
2018-07-02T09:28:39.291Z,29.16
2018-07-02T09:31:06.947Z,29.49
2018-07-02T09:33:34.494Z,29.86
2018-07-02T09:36:02.054Z,30.13
2018-07-02T09:38:29.558Z,30.42
2018-07-02T09:40:57.144Z,30.15
2018-07-02T09:43:24.678Z,29.68
2018-07-02T09:45:52.219Z,29.62
2018-07-02T09:48:19.796Z,29.75
2018-07-02T09:50:47.298Z,29.57
2018-07-02T09:53:14.846Z,29.56
2018-07-02T09:55:42.422Z,30.02
2018-07-02T09:58:09.993Z,30.43
2018-07-02T10:00:37.670Z,30.53
2018-07-02T10:03:07.257Z,30.71
2018-07-02T10:05:34.783Z,31.08
2018-07-02T10:08:02.306Z,30.76
2018-07-02T10:10:29.875Z,30.52
2018-07-02T10:12:57.417Z,30.55
2018-07-02T10:15:24.966Z,30.30
2018-07-02T10:17:52.523Z,30.06
2018-07-02T10:20:20.151Z,30.34
2018-07-02T10:22:47.742Z,31.04
2018-07-02T10:25:15.316Z,31.04
2018-07-02T10:27:42.846Z,31.55
2018-07-02T10:30:10.366Z,31.65
2018-07-02T10:32:37.918Z,31.71
2018-07-02T10:35:05.457Z,31.68
2018-07-02T10:37:32.986Z,31.55
2018-07-02T10:40:01.446Z,31.51
2018-07-02T10:42:29.014Z,31.64
2018-07-02T10:44:56.546Z,32.13
2018-07-02T10:47:24.098Z,32.50
2018-07-02T10:49:52.257Z,32.68
2018-07-02T10:52:19.815Z,32.90
2018-07-02T10:54:47.342Z,33.34
2018-07-02T10:57:14.887Z,33.73
2018-07-02T10:59:42.435Z,34.02
2018-07-02T11:02:10.008Z,34.43
2018-07-02T11:04:37.538Z,34.59
2018-07-02T11:07:05.063Z,34.09
2018-07-02T11:09:32.617Z,33.84
2018-07-02T11:12:00.152Z,33.98
2018-07-02T11:14:27.671Z,33.12
2018-07-02T11:16:55.246Z,33.38
2018-07-02T11:19:22.850Z,33.66
2018-07-02T11:21:50.480Z,33.66
2018-07-02T11:24:18.030Z,34.05
2018-07-02T11:26:45.531Z,34.34
2018-07-02T11:29:13.067Z,34.73
2018-07-02T11:31:40.615Z,35.09
2018-07-02T11:34:08.162Z,34.89
2018-07-02T11:36:35.722Z,35.28
2018-07-02T11:39:05.689Z,35.50
2018-07-02T11:41:33.222Z,35.54
2018-07-02T11:44:00.753Z,35.71
2018-07-02T11:46:28.330Z,35.79
2018-07-02T11:48:55.862Z,35.84
2018-07-02T11:51:23.394Z,35.69
2018-07-02T11:53:50.966Z,35.71
2018-07-02T11:56:18.509Z,36.21
2018-07-02T11:58:46.067Z,36.44
2018-07-02T12:01:13.659Z,36.50
2018-07-02T12:03:41.250Z,36.67
2018-07-02T12:06:08.813Z,36.74
2018-07-02T12:08:36.383Z,36.38
2018-07-02T12:11:03.914Z,36.55
2018-07-02T12:13:31.439Z,36.68
2018-07-02T12:15:58.999Z,36.56
2018-07-02T12:18:26.562Z,36.86
2018-07-02T12:20:54.074Z,37.39
2018-07-02T12:23:21.691Z,37.96
2018-07-02T12:25:49.238Z,38.44
2018-07-02T12:28:16.794Z,38.82
2018-07-02T12:30:44.842Z,38.56
2018-07-02T12:33:12.377Z,38.21
2018-07-02T12:35:39.913Z,38.25
2018-07-02T12:38:07.509Z,38.50
2018-07-02T12:40:35.043Z,38.86
2018-07-02T12:43:02.582Z,38.94
2018-07-02T12:45:30.127Z,39.20
2018-07-02T12:47:57.650Z,39.53
2018-07-02T12:50:25.324Z,39.30
2018-07-02T12:52:53.274Z,39.11
2018-07-02T12:55:20.822Z,39.18
2018-07-02T12:57:48.334Z,39.43
2018-07-02T13:00:15.970Z,39.59
2018-07-02T13:02:43.542Z,39.79
2018-07-02T13:05:11.119Z,39.80
2018-07-02T13:07:38.746Z,39.81
2018-07-02T13:10:06.823Z,40.01
2018-07-02T13:12:34.405Z,40.06
2018-07-02T13:15:02.022Z,40.15
2018-07-02T13:17:29.546Z,40.00
2018-07-02T13:19:57.072Z,39.39
2018-07-02T13:22:24.655Z,39.42
2018-07-02T13:24:52.410Z,39.46
2018-07-02T13:27:20.046Z,39.54
2018-07-02T13:29:47.636Z,39.46
2018-07-02T13:32:15.249Z,38.95
2018-07-02T13:34:42.754Z,39.10
2018-07-02T13:37:10.385Z,39.38
2018-07-02T13:39:37.930Z,39.70
2018-07-02T13:42:05.500Z,39.51
2018-07-02T13:44:33.056Z,39.35
2018-07-02T13:47:00.610Z,39.06
2018-07-02T13:49:28.516Z,39.04
2018-07-02T13:51:56.070Z,39.05
2018-07-02T13:54:23.613Z,39.33
2018-07-02T13:56:51.155Z,39.52
2018-07-02T13:59:18.743Z,39.79
2018-07-02T14:01:46.279Z,39.98
2018-07-02T14:04:14.053Z,39.89
2018-07-02T14:06:41.663Z,40.01
2018-07-02T14:09:10.398Z,39.81
2018-07-02T14:11:38.774Z,39.98
2018-07-02T14:14:06.351Z,39.77
2018-07-02T14:16:33.975Z,39.38
2018-07-02T14:19:01.542Z,39.23
2018-07-02T14:21:29.135Z,39.22
2018-07-02T14:23:56.758Z,39.13
2018-07-02T14:26:24.305Z,39.32
2018-07-02T14:28:52.078Z,39.33
2018-07-02T14:31:19.635Z,39.28
2018-07-02T14:33:47.179Z,39.15
2018-07-02T14:36:14.755Z,38.85
2018-07-02T14:38:42.270Z,38.96
2018-07-02T14:41:09.787Z,38.75
2018-07-02T14:43:38.005Z,38.38
2018-07-02T14:46:05.574Z,38.21
2018-07-02T14:48:33.115Z,38.03
2018-07-02T14:51:00.825Z,37.81
2018-07-02T14:53:28.348Z,37.33
2018-07-02T14:55:55.883Z,36.28
2018-07-02T14:58:23.598Z,35.92
2018-07-02T15:00:51.125Z,35.47
2018-07-02T15:03:18.658Z,35.03
2018-07-02T15:05:46.410Z,34.63
2018-07-02T15:08:13.963Z,34.33
2018-07-02T15:10:41.526Z,33.79
2018-07-02T15:13:09.094Z,33.27
2018-07-02T15:15:36.752Z,32.65
2018-07-02T15:18:04.619Z,31.99
2018-07-02T15:20:32.163Z,31.54
2018-07-02T15:22:59.752Z,31.20
2018-07-02T15:25:27.310Z,30.66
2018-07-02T15:27:54.891Z,30.12
2018-07-02T15:30:22.542Z,29.56
2018-07-02T15:32:50.074Z,28.77
2018-07-02T15:35:17.638Z,28.27
2018-07-02T15:37:45.190Z,28.13
2018-07-02T15:40:12.716Z,28.13
2018-07-02T15:42:40.293Z,28.10
2018-07-02T15:45:07.923Z,28.01
2018-07-02T15:47:35.457Z,27.88
2018-07-02T15:50:03.126Z,27.72
2018-07-02T15:52:30.674Z,27.67
2018-07-02T15:54:58.174Z,27.67
2018-07-02T15:57:25.749Z,27.62
2018-07-02T15:59:53.378Z,27.43
2018-07-02T16:02:20.955Z,27.37
2018-07-02T16:04:48.570Z,27.25
2018-07-02T16:07:16.746Z,27.05
2018-07-02T16:09:44.458Z,26.82
2018-07-02T16:12:12.045Z,26.78
2018-07-02T16:14:39.580Z,26.76
2018-07-02T16:17:07.143Z,26.79
2018-07-02T16:19:34.718Z,26.82
2018-07-02T16:22:02.295Z,26.78
2018-07-02T16:24:30.048Z,26.66
2018-07-02T16:26:57.654Z,26.64
2018-07-02T16:29:25.251Z,26.55
2018-07-02T16:31:52.975Z,26.40
2018-07-02T16:34:20.629Z,26.36
2018-07-02T16:36:48.258Z,26.35
2018-07-02T16:39:15.818Z,26.30
2018-07-02T16:41:43.379Z,26.26
2018-07-02T16:44:10.910Z,26.22
2018-07-02T16:46:38.524Z,26.19
2018-07-02T16:49:06.122Z,26.16
2018-07-02T16:51:34.351Z,26.04
2018-07-02T16:54:02.343Z,26.01
2018-07-02T16:56:29.953Z,25.99
2018-07-02T16:58:57.494Z,25.98
2018-07-02T17:01:25.054Z,25.91
2018-07-02T17:03:52.632Z,25.84
2018-07-02T17:06:20.315Z,25.79
2018-07-02T17:08:47.824Z,25.71
2018-07-02T17:11:16.491Z,25.61
2018-07-02T17:13:44.039Z,25.58
2018-07-02T17:16:11.614Z,25.51
2018-07-02T17:18:39.218Z,25.46
2018-07-02T17:21:06.789Z,25.40
2018-07-02T17:23:34.520Z,25.38
2018-07-02T17:26:02.087Z,25.34
2018-07-02T17:28:29.649Z,25.29
2018-07-02T17:30:57.210Z,25.18
2018-07-02T17:33:24.838Z,25.14
2018-07-02T17:35:52.366Z,25.06
2018-07-02T17:38:19.914Z,25.00
2018-07-02T17:40:47.657Z,24.91
2018-07-02T17:43:15.174Z,24.84
2018-07-02T17:45:42.758Z,24.80
2018-07-02T17:48:10.294Z,24.75
2018-07-02T17:50:37.966Z,24.67
2018-07-02T17:53:05.675Z,24.58
2018-07-02T17:55:33.226Z,24.51
2018-07-02T17:58:00.780Z,24.45
2018-07-02T18:00:28.506Z,24.37
2018-07-02T18:02:56.202Z,24.30
2018-07-02T18:05:23.801Z,24.21
2018-07-02T18:07:51.314Z,24.14
2018-07-02T18:10:19.552Z,24.10
2018-07-02T18:12:48.783Z,24.04
2018-07-02T18:15:16.328Z,23.96
2018-07-02T18:17:43.931Z,23.85
2018-07-02T18:20:11.620Z,23.79
2018-07-02T18:22:39.278Z,23.71
2018-07-02T18:25:07.355Z,23.64
2018-07-02T18:27:34.890Z,23.56
2018-07-02T18:30:04.054Z,23.49
2018-07-02T18:32:31.682Z,23.41
2018-07-02T18:34:59.386Z,23.36
2018-07-02T18:37:27.286Z,23.31
2018-07-02T18:39:55.740Z,23.24
2018-07-02T18:42:23.401Z,23.21
2018-07-02T18:44:50.922Z,23.15
2018-07-02T18:47:18.692Z,23.07
2018-07-02T18:49:46.446Z,23.03
2018-07-02T18:52:14.034Z,22.97
2018-07-02T18:54:41.647Z,22.88
2018-07-02T18:57:09.378Z,22.83
2018-07-02T18:59:38.033Z,22.76
2018-07-02T19:02:05.777Z,22.66
2018-07-02T19:04:33.398Z,22.59
2018-07-02T19:07:01.026Z,22.49
2018-07-02T19:09:28.960Z,22.41
2018-07-02T19:11:56.718Z,22.35
2018-07-02T19:14:24.257Z,22.26
2018-07-02T19:16:51.942Z,22.16
2018-07-02T19:19:19.695Z,22.07
2018-07-02T19:21:47.598Z,21.98
2018-07-02T19:24:15.183Z,21.90
2018-07-02T19:26:42.723Z,21.81
2018-07-02T19:29:11.326Z,21.72
2018-07-02T19:31:39.258Z,21.59
2018-07-02T19:34:07.042Z,21.49
2018-07-02T19:36:34.574Z,21.39
2018-07-02T19:39:02.230Z,21.33
2018-07-02T19:41:30.036Z,21.25
2018-07-02T19:43:57.933Z,21.17
2018-07-02T19:46:25.532Z,21.10
2018-07-02T19:48:53.070Z,20.99
2018-07-02T19:51:20.687Z,20.92
2018-07-02T19:53:48.573Z,20.85
2018-07-02T19:56:16.251Z,20.75
2018-07-02T19:58:43.858Z,20.63
2018-07-02T20:01:11.442Z,20.56
2018-07-02T20:03:39.042Z,20.48
2018-07-02T20:06:06.654Z,20.39
2018-07-02T20:08:34.339Z,20.39
2018-07-02T20:11:01.961Z,20.33
2018-07-02T20:13:29.582Z,20.26
2018-07-02T20:15:57.143Z,20.18
2018-07-02T20:18:24.719Z,20.08
2018-07-02T20:20:52.278Z,20.03
2018-07-02T20:23:19.946Z,19.97
2018-07-02T20:25:47.496Z,19.92
2018-07-02T20:28:16.126Z,19.85
2018-07-02T20:30:43.698Z,19.77
2018-07-02T20:33:11.546Z,19.66
2018-07-02T20:35:39.129Z,19.60
2018-07-02T20:38:06.751Z,19.51
2018-07-02T20:40:34.318Z,19.50
2018-07-02T20:43:01.847Z,19.44
2018-07-02T20:45:29.611Z,19.40
2018-07-02T20:47:57.174Z,19.37
2018-07-02T20:50:24.705Z,19.37
2018-07-02T20:52:52.450Z,19.39
2018-07-02T20:55:20.003Z,19.34
2018-07-02T20:57:47.542Z,19.28
2018-07-02T21:00:15.115Z,19.19
2018-07-02T21:02:42.667Z,19.12
2018-07-02T21:05:12.382Z,19.05
2018-07-02T21:07:40.234Z,18.99
2018-07-02T21:10:08.046Z,18.95
2018-07-02T21:12:35.578Z,18.87
2018-07-02T21:15:03.224Z,18.80
2018-07-02T21:17:30.787Z,18.74
2018-07-02T21:19:58.354Z,18.74
2018-07-02T21:22:25.981Z,18.65
2018-07-02T21:24:53.558Z,18.61
2018-07-02T21:27:21.098Z,18.59
2018-07-02T21:29:48.674Z,18.55
2018-07-02T21:32:16.194Z,18.45
2018-07-02T21:34:43.749Z,18.41
2018-07-02T21:37:11.329Z,18.39
2018-07-02T21:39:38.902Z,18.35
2018-07-02T21:42:06.490Z,18.32
2018-07-02T21:44:34.056Z,18.25
2018-07-02T21:47:01.614Z,18.21
2018-07-02T21:49:29.151Z,18.16
2018-07-02T21:51:56.703Z,18.09
2018-07-02T21:54:24.209Z,18.03
2018-07-02T21:56:51.802Z,18.00
2018-07-02T21:59:19.384Z,17.94
2018-07-02T22:01:46.990Z,17.89
2018-07-02T22:04:14.527Z,17.85
2018-07-02T22:06:42.233Z,17.82
2018-07-02T22:09:10.731Z,17.75
2018-07-02T22:11:38.350Z,17.70
2018-07-02T22:14:05.981Z,17.67
2018-07-02T22:16:33.634Z,17.61
2018-07-02T22:19:01.170Z,17.54
2018-07-02T22:21:28.787Z,17.48
2018-07-02T22:23:56.350Z,17.44
2018-07-02T22:26:23.914Z,17.41
2018-07-02T22:28:51.486Z,17.34
2018-07-02T22:31:19.070Z,17.28
2018-07-02T22:33:46.614Z,17.25
2018-07-02T22:36:14.219Z,17.23
2018-07-02T22:38:41.759Z,17.20
2018-07-02T22:41:09.311Z,17.16
2018-07-02T22:43:36.880Z,17.16
2018-07-02T22:46:04.498Z,17.13
2018-07-02T22:48:32.080Z,17.13
2018-07-02T22:50:59.685Z,17.09
2018-07-02T22:53:27.230Z,17.04
2018-07-02T22:55:59.408Z,16.98
2018-07-02T22:58:26.995Z,16.94
2018-07-02T23:00:54.827Z,16.89
2018-07-02T23:03:22.414Z,16.82
2018-07-02T23:05:49.998Z,16.81
2018-07-02T23:08:17.526Z,16.74
2018-07-02T23:10:45.115Z,16.75
2018-07-02T23:13:12.635Z,16.72
2018-07-02T23:15:40.213Z,16.67
2018-07-02T23:18:07.783Z,16.64
2018-07-02T23:20:35.319Z,16.60
2018-07-02T23:23:03.792Z,16.56
2018-07-02T23:25:31.426Z,16.51
2018-07-02T23:28:00.139Z,16.51
2018-07-02T23:30:28.718Z,16.53
2018-07-02T23:32:56.280Z,16.45
2018-07-02T23:35:23.900Z,16.41
2018-07-02T23:37:52.093Z,16.37
2018-07-02T23:40:21.367Z,16.38
2018-07-02T23:42:49.606Z,16.29
2018-07-02T23:45:17.138Z,16.31
2018-07-02T23:47:44.731Z,16.29
2018-07-02T23:50:12.284Z,16.26
2018-07-02T23:52:40.266Z,16.34
2018-07-02T23:55:07.797Z,16.29
2018-07-02T23:57:35.441Z,16.26
